aviador You're here:

KFWN Decoded Metar

SUSSEX in NJ, USA
Report Time2017-12-18 07:53:00
UTC Time2017-12-18 08:54:12
Flight Rules mvfr MVFR
Wind050° at 03 kt
W.Decomp.*RWY 03: 2.5 kt HW 1.6 kt RCW
W.Rank050° ranks 8
Current wind is below 050° avg. (6.2)
Visibility9999 m
Phenomena:N/A
Clouds:Overcast 014 Hf
Expected CloudBase > 2,000 ft AGL from Temp-Dew spread
Ceiling1,400 ft
Temp-2°C (ISA -16)
Dew Point-7°C (69% RH)
AAT-5.9°C
QNH1021 hPa
Density Alt-1,765 ft
Elevation436 ft
Report Wrong Elevation
Raw Report
METAR KFWN 180753Z AUTO 05003KT 10SM OVC014 M02/M07 A3016 RMK AO2 SLP216
T10221067=

Extra information for KFWN:More info

Metar Taf Metar & Taf Last 4 Metars F.Rules Stats Wind Profile Meteogram Temp Stats Airport Information Weather charts Add Link Nearby VenuesMetar ALERT Operation Metar Decoded Social comments

AIRNAV info for KFWN